sensor_id;sensor_type;location;lat;lon;timestamp;temperature;humidity
61016;DHT22;46902;52.920;6.536;2024-03-08T00:02:23;2.90;99.90
61016;DHT22;46902;52.920;6.536;2024-03-08T00:04:49;2.90;99.90
61016;DHT22;46902;52.920;6.536;2024-03-08T00:07:14;2.90;99.90
61016;DHT22;46902;52.920;6.536;2024-03-08T00:09:40;2.90;99.90
61016;DHT22;46902;52.920;6.536;2024-03-08T00:12:06;2.90;99.90
61016;DHT22;46902;52.920;6.536;2024-03-08T00:14:32;2.80;99.90
61016;DHT22;46902;52.920;6.536;2024-03-08T00:16:58;2.80;99.90
61016;DHT22;46902;52.920;6.536;2024-03-08T00:19:24;2.80;99.90
61016;DHT22;46902;52.920;6.536;2024-03-08T00:21:49;2.80;99.90
61016;DHT22;46902;52.920;6.536;2024-03-08T00:24:15;2.70;99.90
61016;DHT22;46902;52.920;6.536;2024-03-08T00:26:41;2.70;99.90
61016;DHT22;46902;52.920;6.536;2024-03-08T00:29:07;2.70;99.90
61016;DHT22;46902;52.920;6.536;2024-03-08T00:31:33;2.70;99.90
61016;DHT22;46902;52.920;6.536;2024-03-08T00:33:58;2.60;99.90
61016;DHT22;46902;52.920;6.536;2024-03-08T00:36:25;2.60;99.90
61016;DHT22;46902;52.920;6.536;2024-03-08T00:38:50;2.60;99.90
61016;DHT22;46902;52.920;6.536;2024-03-08T00:41:16;2.60;99.90
61016;DHT22;46902;52.920;6.536;2024-03-08T00:43:42;2.60;99.90
61016;DHT22;46902;52.920;6.536;2024-03-08T00:46:07;2.60;99.90
61016;DHT22;46902;52.920;6.536;2024-03-08T00:48:33;2.50;99.90
61016;DHT22;46902;52.920;6.536;2024-03-08T00:50:58;2.50;99.90
61016;DHT22;46902;52.920;6.536;2024-03-08T00:53:24;2.50;99.90
61016;DHT22;46902;52.920;6.536;2024-03-08T00:55:50;2.50;99.90
61016;DHT22;46902;52.920;6.536;2024-03-08T00:58:15;2.50;99.90
61016;DHT22;46902;52.920;6.536;2024-03-08T01:00:41;2.50;99.90
61016;DHT22;46902;52.920;6.536;2024-03-08T01:03:07;2.50;99.90
61016;DHT22;46902;52.920;6.536;2024-03-08T01:05:33;2.50;99.90
61016;DHT22;46902;52.920;6.536;2024-03-08T01:07:59;2.40;99.90
61016;DHT22;46902;52.920;6.536;2024-03-08T01:10:24;2.50;99.90
61016;DHT22;46902;52.920;6.536;2024-03-08T01:12:50;2.40;99.90
61016;DHT22;46902;52.920;6.536;2024-03-08T01:15:16;2.40;99.90
61016;DHT22;46902;52.920;6.536;2024-03-08T01:17:41;2.40;99.90
61016;DHT22;46902;52.920;6.536;2024-03-08T01:20:09;2.30;99.90
61016;DHT22;46902;52.920;6.536;2024-03-08T01:22:38;2.40;99.90
61016;DHT22;46902;52.920;6.536;2024-03-08T01:25:03;2.40;99.90
61016;DHT22;46902;52.920;6.536;2024-03-08T01:27:30;2.40;99.90
61016;DHT22;46902;52.920;6.536;2024-03-08T01:29:56;2.40;99.90
61016;DHT22;46902;52.920;6.536;2024-03-08T01:32:22;2.30;99.90
61016;DHT22;46902;52.920;6.536;2024-03-08T01:34:49;2.30;99.90
61016;DHT22;46902;52.920;6.536;2024-03-08T01:37:14;2.30;99.90
61016;DHT22;46902;52.920;6.536;2024-03-08T01:39:40;2.30;99.90
61016;DHT22;46902;52.920;6.536;2024-03-08T01:42:05;2.30;99.90
61016;DHT22;46902;52.920;6.536;2024-03-08T01:44:31;2.20;99.90
61016;DHT22;46902;52.920;6.536;2024-03-08T01:46:57;2.20;99.90
61016;DHT22;46902;52.920;6.536;2024-03-08T01:49:24;2.20;99.90
61016;DHT22;46902;52.920;6.536;2024-03-08T01:51:50;2.20;99.90
61016;DHT22;46902;52.920;6.536;2024-03-08T01:54:17;2.20;99.90
61016;DHT22;46902;52.920;6.536;2024-03-08T01:56:43;2.10;99.90
61016;DHT22;46902;52.920;6.536;2024-03-08T01:59:09;2.10;99.90
61016;DHT22;46902;52.920;6.536;2024-03-08T02:01:35;2.10;99.90
61016;DHT22;46902;52.920;6.536;2024-03-08T02:04:01;2.20;99.90
61016;DHT22;46902;52.920;6.536;2024-03-08T02:06:26;2.10;99.90
61016;DHT22;46902;52.920;6.536;2024-03-08T02:08:52;2.10;99.90
61016;DHT22;46902;52.920;6.536;2024-03-08T02:11:19;2.10;99.90
61016;DHT22;46902;52.920;6.536;2024-03-08T02:13:46;2.10;99.90
61016;DHT22;46902;52.920;6.536;2024-03-08T02:16:11;2.10;99.90
61016;DHT22;46902;52.920;6.536;2024-03-08T02:18:37;2.10;99.90
61016;DHT22;46902;52.920;6.536;2024-03-08T02:21:05;2.10;99.90
61016;DHT22;46902;52.920;6.536;2024-03-08T02:23:32;2.10;99.90
61016;DHT22;46902;52.920;6.536;2024-03-08T02:25:58;2.10;99.90
61016;DHT22;46902;52.920;6.536;2024-03-08T02:28:24;2.10;99.90
61016;DHT22;46902;52.920;6.536;2024-03-08T02:30:54;2.10;99.90
61016;DHT22;46902;52.920;6.536;2024-03-08T02:33:21;2.10;99.90
61016;DHT22;46902;52.920;6.536;2024-03-08T02:35:48;2.10;99.90
61016;DHT22;46902;52.920;6.536;2024-03-08T02:38:23;2.10;99.90
61016;DHT22;46902;52.920;6.536;2024-03-08T02:40:51;2.10;99.90
61016;DHT22;46902;52.920;6.536;2024-03-08T02:43:19;2.10;99.90
61016;DHT22;46902;52.920;6.536;2024-03-08T02:45:45;2.10;99.90
61016;DHT22;46902;52.920;6.536;2024-03-08T02:48:11;2.10;99.90
61016;DHT22;46902;52.920;6.536;2024-03-08T02:50:38;2.00;99.90
61016;DHT22;46902;52.920;6.536;2024-03-08T02:53:06;2.10;99.90
61016;DHT22;46902;52.920;6.536;2024-03-08T02:55:31;2.00;99.90
61016;DHT22;46902;52.920;6.536;2024-03-08T02:57:59;2.00;99.90
61016;DHT22;46902;52.920;6.536;2024-03-08T03:00:24;2.00;99.90
61016;DHT22;46902;52.920;6.536;2024-03-08T03:02:50;2.00;99.90
61016;DHT22;46902;52.920;6.536;2024-03-08T03:05:23;2.00;99.90
61016;DHT22;46902;52.920;6.536;2024-03-08T03:07:49;2.00;99.90
61016;DHT22;46902;52.920;6.536;2024-03-08T03:10:16;2.00;99.90
61016;DHT22;46902;52.920;6.536;2024-03-08T03:12:43;2.00;99.90
61016;DHT22;46902;52.920;6.536;2024-03-08T03:15:10;2.00;99.90
61016;DHT22;46902;52.920;6.536;2024-03-08T03:17:37;2.00;99.90
61016;DHT22;46902;52.920;6.536;2024-03-08T03:20:05;2.00;99.90
61016;DHT22;46902;52.920;6.536;2024-03-08T03:22:36;1.90;99.90
61016;DHT22;46902;52.920;6.536;2024-03-08T03:25:03;1.90;99.90
61016;DHT22;46902;52.920;6.536;2024-03-08T03:27:29;1.90;99.90
61016;DHT22;46902;52.920;6.536;2024-03-08T03:29:56;1.90;99.90
61016;DHT22;46902;52.920;6.536;2024-03-08T03:32:23;1.90;99.90
61016;DHT22;46902;52.920;6.536;2024-03-08T03:34:49;1.90;99.90
61016;DHT22;46902;52.920;6.536;2024-03-08T03:37:18;1.90;99.90
61016;DHT22;46902;52.920;6.536;2024-03-08T03:39:45;1.90;99.90
61016;DHT22;46902;52.920;6.536;2024-03-08T03:42:19;1.80;99.90
61016;DHT22;46902;52.920;6.536;2024-03-08T03:44:48;1.80;99.90
61016;DHT22;46902;52.920;6.536;2024-03-08T03:47:15;1.80;99.90
61016;DHT22;46902;52.920;6.536;2024-03-08T03:49:41;1.80;99.90
61016;DHT22;46902;52.920;6.536;2024-03-08T03:52:07;1.80;99.90
61016;DHT22;46902;52.920;6.536;2024-03-08T03:54:33;1.70;99.90
61016;DHT22;46902;52.920;6.536;2024-03-08T03:56:59;1.70;99.90
61016;DHT22;46902;52.920;6.536;2024-03-08T03:59:26;1.70;99.90
61016;DHT22;46902;52.920;6.536;2024-03-08T04:01:55;1.70;99.90
61016;DHT22;46902;52.920;6.536;2024-03-08T04:04:21;1.70;99.90
61016;DHT22;46902;52.920;6.536;2024-03-08T04:06:47;1.60;99.90
61016;DHT22;46902;52.920;6.536;2024-03-08T04:09:13;1.60;99.90
61016;DHT22;46902;52.920;6.536;2024-03-08T04:11:39;1.60;99.90
61016;DHT22;46902;52.920;6.536;2024-03-08T04:14:05;1.60;99.90
61016;DHT22;46902;52.920;6.536;2024-03-08T04:16:31;1.60;99.90
61016;DHT22;46902;52.920;6.536;2024-03-08T04:18:57;1.60;99.90
61016;DHT22;46902;52.920;6.536;2024-03-08T04:21:23;1.60;99.90
61016;DHT22;46902;52.920;6.536;2024-03-08T04:23:48;1.60;99.90
61016;DHT22;46902;52.920;6.536;2024-03-08T04:26:14;1.60;99.90
61016;DHT22;46902;52.920;6.536;2024-03-08T04:28:39;1.60;99.90
61016;DHT22;46902;52.920;6.536;2024-03-08T04:31:05;1.50;99.90
61016;DHT22;46902;52.920;6.536;2024-03-08T04:33:32;1.50;99.90
61016;DHT22;46902;52.920;6.536;2024-03-08T04:35:58;1.60;99.90
61016;DHT22;46902;52.920;6.536;2024-03-08T04:38:23;1.60;99.90
61016;DHT22;46902;52.920;6.536;2024-03-08T04:40:50;1.50;99.90
61016;DHT22;46902;52.920;6.536;2024-03-08T04:43:16;1.50;99.90
61016;DHT22;46902;52.920;6.536;2024-03-08T04:45:44;1.50;99.90
61016;DHT22;46902;52.920;6.536;2024-03-08T04:48:09;1.50;99.90
61016;DHT22;46902;52.920;6.536;2024-03-08T04:50:35;1.50;99.90
61016;DHT22;46902;52.920;6.536;2024-03-08T04:53:01;1.50;99.90
61016;DHT22;46902;52.920;6.536;2024-03-08T04:55:26;1.50;99.90
61016;DHT22;46902;52.920;6.536;2024-03-08T04:57:52;1.40;99.90
61016;DHT22;46902;52.920;6.536;2024-03-08T05:00:18;1.40;99.90
61016;DHT22;46902;52.920;6.536;2024-03-08T05:02:44;1.40;99.90
61016;DHT22;46902;52.920;6.536;2024-03-08T05:05:10;1.40;99.90
61016;DHT22;46902;52.920;6.536;2024-03-08T05:07:39;1.40;99.90
61016;DHT22;46902;52.920;6.536;2024-03-08T05:10:06;1.40;99.90
61016;DHT22;46902;52.920;6.536;2024-03-08T05:12:32;1.30;99.90
61016;DHT22;46902;52.920;6.536;2024-03-08T05:14:58;1.30;99.90
61016;DHT22;46902;52.920;6.536;2024-03-08T05:17:24;1.30;99.90
61016;DHT22;46902;52.920;6.536;2024-03-08T05:19:50;1.30;99.90
61016;DHT22;46902;52.920;6.536;2024-03-08T05:22:16;1.30;99.90
61016;DHT22;46902;52.920;6.536;2024-03-08T05:24:43;1.20;99.90
61016;DHT22;46902;52.920;6.536;2024-03-08T05:27:08;1.30;99.90
61016;DHT22;46902;52.920;6.536;2024-03-08T05:29:34;1.20;99.90
61016;DHT22;46902;52.920;6.536;2024-03-08T05:32:00;1.20;99.90
61016;DHT22;46902;52.920;6.536;2024-03-08T05:34:26;1.20;99.90
61016;DHT22;46902;52.920;6.536;2024-03-08T05:36:54;1.20;99.90
61016;DHT22;46902;52.920;6.536;2024-03-08T05:39:20;1.20;99.90
61016;DHT22;46902;52.920;6.536;2024-03-08T05:41:46;1.20;99.90
61016;DHT22;46902;52.920;6.536;2024-03-08T05:44:12;1.20;99.90
61016;DHT22;46902;52.920;6.536;2024-03-08T05:46:38;1.20;99.90
61016;DHT22;46902;52.920;6.536;2024-03-08T05:49:04;1.20;99.90
61016;DHT22;46902;52.920;6.536;2024-03-08T05:51:35;1.20;99.90
61016;DHT22;46902;52.920;6.536;2024-03-08T05:54:05;1.20;99.90
61016;DHT22;46902;52.920;6.536;2024-03-08T05:56:34;1.20;99.90
61016;DHT22;46902;52.920;6.536;2024-03-08T05:59:01;1.20;99.90
61016;DHT22;46902;52.920;6.536;2024-03-08T06:01:27;1.20;99.90
61016;DHT22;46902;52.920;6.536;2024-03-08T06:03:54;1.20;99.90
61016;DHT22;46902;52.920;6.536;2024-03-08T06:06:22;1.20;99.90
61016;DHT22;46902;52.920;6.536;2024-03-08T06:08:48;1.10;99.90
61016;DHT22;46902;52.920;6.536;2024-03-08T06:11:18;1.20;99.90
61016;DHT22;46902;52.920;6.536;2024-03-08T06:13:45;1.20;99.90
61016;DHT22;46902;52.920;6.536;2024-03-08T06:16:10;1.20;99.90
61016;DHT22;46902;52.920;6.536;2024-03-08T06:18:37;1.20;99.90
61016;DHT22;46902;52.920;6.536;2024-03-08T06:21:04;1.20;99.90
61016;DHT22;46902;52.920;6.536;2024-03-08T06:23:33;1.20;99.90
61016;DHT22;46902;52.920;6.536;2024-03-08T06:25:59;1.20;99.90
61016;DHT22;46902;52.920;6.536;2024-03-08T06:28:24;1.20;99.90
61016;DHT22;46902;52.920;6.536;2024-03-08T06:30:50;1.20;99.90
61016;DHT22;46902;52.920;6.536;2024-03-08T06:33:17;1.20;99.90
61016;DHT22;46902;52.920;6.536;2024-03-08T06:35:43;1.20;99.90
61016;DHT22;46902;52.920;6.536;2024-03-08T06:38:09;1.20;99.90
61016;DHT22;46902;52.920;6.536;2024-03-08T06:40:35;1.20;99.90
61016;DHT22;46902;52.920;6.536;2024-03-08T06:43:00;1.20;99.90
61016;DHT22;46902;52.920;6.536;2024-03-08T06:45:26;1.20;99.90
61016;DHT22;46902;52.920;6.536;2024-03-08T06:47:52;1.20;99.90
61016;DHT22;46902;52.920;6.536;2024-03-08T06:50:17;1.30;99.90
61016;DHT22;46902;52.920;6.536;2024-03-08T06:52:43;1.30;99.90
61016;DHT22;46902;52.920;6.536;2024-03-08T06:55:10;1.30;99.90
61016;DHT22;46902;52.920;6.536;2024-03-08T06:57:41;1.30;99.90
61016;DHT22;46902;52.920;6.536;2024-03-08T07:00:08;1.40;99.90
61016;DHT22;46902;52.920;6.536;2024-03-08T07:02:40;1.40;99.90
61016;DHT22;46902;52.920;6.536;2024-03-08T07:05:07;1.40;99.90
61016;DHT22;46902;52.920;6.536;2024-03-08T07:07:36;1.40;99.90
61016;DHT22;46902;52.920;6.536;2024-03-08T07:10:02;1.40;99.90
61016;DHT22;46902;52.920;6.536;2024-03-08T07:12:28;1.50;99.90
61016;DHT22;46902;52.920;6.536;2024-03-08T07:14:54;1.60;99.90
61016;DHT22;46902;52.920;6.536;2024-03-08T07:17:19;1.60;99.90
61016;DHT22;46902;52.920;6.536;2024-03-08T07:19:45;1.60;99.90
61016;DHT22;46902;52.920;6.536;2024-03-08T07:22:11;1.60;99.90
61016;DHT22;46902;52.920;6.536;2024-03-08T07:24:37;1.70;99.90
61016;DHT22;46902;52.920;6.536;2024-03-08T07:27:04;1.70;99.90
61016;DHT22;46902;52.920;6.536;2024-03-08T07:29:34;1.80;99.90
61016;DHT22;46902;52.920;6.536;2024-03-08T07:32:00;1.80;99.90
61016;DHT22;46902;52.920;6.536;2024-03-08T07:34:26;1.90;99.90
61016;DHT22;46902;52.920;6.536;2024-03-08T07:36:52;1.90;99.90
61016;DHT22;46902;52.920;6.536;2024-03-08T07:39:17;2.00;99.90
61016;DHT22;46902;52.920;6.536;2024-03-08T07:41:44;2.00;99.90
61016;DHT22;46902;52.920;6.536;2024-03-08T07:44:10;2.10;99.90
61016;DHT22;46902;52.920;6.536;2024-03-08T07:46:36;2.10;99.90
61016;DHT22;46902;52.920;6.536;2024-03-08T07:49:02;2.10;99.90
61016;DHT22;46902;52.920;6.536;2024-03-08T07:51:28;2.20;99.90
61016;DHT22;46902;52.920;6.536;2024-03-08T07:53:54;2.20;99.90
61016;DHT22;46902;52.920;6.536;2024-03-08T07:56:20;2.20;99.90
61016;DHT22;46902;52.920;6.536;2024-03-08T07:58:47;2.30;99.90
61016;DHT22;46902;52.920;6.536;2024-03-08T08:01:20;2.40;99.90
61016;DHT22;46902;52.920;6.536;2024-03-08T08:03:46;2.40;99.90
61016;DHT22;46902;52.920;6.536;2024-03-08T08:06:13;2.50;99.90
61016;DHT22;46902;52.920;6.536;2024-03-08T08:08:44;2.60;99.90
61016;DHT22;46902;52.920;6.536;2024-03-08T08:11:10;2.70;99.90
61016;DHT22;46902;52.920;6.536;2024-03-08T08:13:41;2.70;99.90
61016;DHT22;46902;52.920;6.536;2024-03-08T08:16:08;2.80;99.90
61016;DHT22;46902;52.920;6.536;2024-03-08T08:18:34;2.90;99.90
61016;DHT22;46902;52.920;6.536;2024-03-08T08:21:02;2.90;99.90
61016;DHT22;46902;52.920;6.536;2024-03-08T08:23:28;3.00;99.90
61016;DHT22;46902;52.920;6.536;2024-03-08T08:25:55;3.10;99.90
61016;DHT22;46902;52.920;6.536;2024-03-08T08:28:21;3.20;99.90
61016;DHT22;46902;52.920;6.536;2024-03-08T08:30:47;3.30;99.90
61016;DHT22;46902;52.920;6.536;2024-03-08T08:33:14;3.50;99.90
61016;DHT22;46902;52.920;6.536;2024-03-08T08:35:40;4.40;99.90
61016;DHT22;46902;52.920;6.536;2024-03-08T08:38:06;5.60;99.90
61016;DHT22;46902;52.920;6.536;2024-03-08T08:40:33;6.80;99.90
61016;DHT22;46902;52.920;6.536;2024-03-08T08:42:59;7.70;99.90
61016;DHT22;46902;52.920;6.536;2024-03-08T08:45:25;8.40;99.90
61016;DHT22;46902;52.920;6.536;2024-03-08T08:47:52;9.10;97.30
61016;DHT22;46902;52.920;6.536;2024-03-08T08:50:18;9.70;93.00
61016;DHT22;46902;52.920;6.536;2024-03-08T08:52:49;10.10;90.00
61016;DHT22;46902;52.920;6.536;2024-03-08T08:55:15;10.60;87.30
61016;DHT22;46902;52.920;6.536;2024-03-08T08:57:41;11.00;84.70
61016;DHT22;46902;52.920;6.536;2024-03-08T09:00:07;11.10;81.20
61016;DHT22;46902;52.920;6.536;2024-03-08T09:02:36;11.30;80.50
61016;DHT22;46902;52.920;6.536;2024-03-08T09:05:03;11.40;78.70
61016;DHT22;46902;52.920;6.536;2024-03-08T09:07:29;11.50;78.50
61016;DHT22;46902;52.920;6.536;2024-03-08T09:09:55;11.60;76.90
61016;DHT22;46902;52.920;6.536;2024-03-08T09:12:24;11.80;76.80
61016;DHT22;46902;52.920;6.536;2024-03-08T09:14:49;12.10;75.30
61016;DHT22;46902;52.920;6.536;2024-03-08T09:17:15;12.40;74.30
61016;DHT22;46902;52.920;6.536;2024-03-08T09:19:48;12.70;74.10
61016;DHT22;46902;52.920;6.536;2024-03-08T09:22:14;12.80;72.10
61016;DHT22;46902;52.920;6.536;2024-03-08T09:24:39;13.00;71.70
61016;DHT22;46902;52.920;6.536;2024-03-08T09:27:05;13.30;70.80
61016;DHT22;46902;52.920;6.536;2024-03-08T09:29:31;13.50;69.90
61016;DHT22;46902;52.920;6.536;2024-03-08T09:31:57;13.30;69.10
61016;DHT22;46902;52.920;6.536;2024-03-08T09:34:22;13.40;68.80
61016;DHT22;46902;52.920;6.536;2024-03-08T09:36:49;13.50;67.90
61016;DHT22;46902;52.920;6.536;2024-03-08T09:39:14;13.70;67.70
61016;DHT22;46902;52.920;6.536;2024-03-08T09:41:45;14.00;66.90
61016;DHT22;46902;52.920;6.536;2024-03-08T09:44:14;14.30;66.70
61016;DHT22;46902;52.920;6.536;2024-03-08T09:46:40;14.60;66.00
61016;DHT22;46902;52.920;6.536;2024-03-08T09:49:06;14.90;65.20
61016;DHT22;46902;52.920;6.536;2024-03-08T09:51:34;14.90;64.30
61016;DHT22;46902;52.920;6.536;2024-03-08T09:54:02;14.90;63.00
61016;DHT22;46902;52.920;6.536;2024-03-08T09:56:35;14.70;63.40
61016;DHT22;46902;52.920;6.536;2024-03-08T09:59:02;14.90;62.70
61016;DHT22;46902;52.920;6.536;2024-03-08T10:01:37;15.00;63.20
61016;DHT22;46902;52.920;6.536;2024-03-08T10:04:04;15.30;62.10
61016;DHT22;46902;52.920;6.536;2024-03-08T10:06:30;15.30;61.30
61016;DHT22;46902;52.920;6.536;2024-03-08T10:08:57;15.00;60.90
61016;DHT22;46902;52.920;6.536;2024-03-08T10:11:24;15.00;61.30
61016;DHT22;46902;52.920;6.536;2024-03-08T10:13:49;15.20;61.20
61016;DHT22;46902;52.920;6.536;2024-03-08T10:16:16;15.40;61.20
61016;DHT22;46902;52.920;6.536;2024-03-08T10:18:42;15.70;61.00
61016;DHT22;46902;52.920;6.536;2024-03-08T10:21:11;15.90;59.80
61016;DHT22;46902;52.920;6.536;2024-03-08T10:23:37;16.20;59.30
61016;DHT22;46902;52.920;6.536;2024-03-08T10:26:13;16.20;58.80
61016;DHT22;46902;52.920;6.536;2024-03-08T10:28:42;16.30;59.30
61016;DHT22;46902;52.920;6.536;2024-03-08T10:31:09;16.40;59.20
61016;DHT22;46902;52.920;6.536;2024-03-08T10:33:35;16.50;58.50
61016;DHT22;46902;52.920;6.536;2024-03-08T10:36:01;16.50;58.70
61016;DHT22;46902;52.920;6.536;2024-03-08T10:38:26;16.70;58.70
61016;DHT22;46902;52.920;6.536;2024-03-08T10:40:54;16.80;58.30
61016;DHT22;46902;52.920;6.536;2024-03-08T10:43:25;16.80;58.10
61016;DHT22;46902;52.920;6.536;2024-03-08T10:48:44;16.40;58.20
61016;DHT22;46902;52.920;6.536;2024-03-08T10:51:11;16.30;58.70
61016;DHT22;46902;52.920;6.536;2024-03-08T10:53:38;16.20;58.90
61016;DHT22;46902;52.920;6.536;2024-03-08T10:56:08;16.00;59.10
61016;DHT22;46902;52.920;6.536;2024-03-08T10:58:36;15.80;59.40
61016;DHT22;46902;52.920;6.536;2024-03-08T11:01:02;15.70;59.60
61016;DHT22;46902;52.920;6.536;2024-03-08T11:08:40;15.30;59.80
61016;DHT22;46902;52.920;6.536;2024-03-08T11:11:29;15.10;61.00
61016;DHT22;46902;52.920;6.536;2024-03-08T11:13:56;15.10;60.60
61016;DHT22;46902;52.920;6.536;2024-03-08T11:18:59;14.70;61.60
61016;DHT22;46902;52.920;6.536;2024-03-08T11:21:30;14.50;62.00
61016;DHT22;46902;52.920;6.536;2024-03-08T11:24:11;14.20;63.00
61016;DHT22;46902;52.920;6.536;2024-03-08T11:26:42;14.00;62.60
61016;DHT22;46902;52.920;6.536;2024-03-08T11:32:15;14.10;63.60
61016;DHT22;46902;52.920;6.536;2024-03-08T11:34:48;14.20;62.80
61016;DHT22;46902;52.920;6.536;2024-03-08T11:37:16;14.20;63.10
61016;DHT22;46902;52.920;6.536;2024-03-08T11:39:54;14.30;64.50
61016;DHT22;46902;52.920;6.536;2024-03-08T11:42:25;14.50;62.70
61016;DHT22;46902;52.920;6.536;2024-03-08T11:44:52;14.40;62.70
61016;DHT22;46902;52.920;6.536;2024-03-08T11:47:18;14.30;62.30
61016;DHT22;46902;52.920;6.536;2024-03-08T11:49:45;14.30;63.10
61016;DHT22;46902;52.920;6.536;2024-03-08T11:52:13;14.40;62.10
61016;DHT22;46902;52.920;6.536;2024-03-08T11:54:56;14.60;62.00
61016;DHT22;46902;52.920;6.536;2024-03-08T11:57:23;14.90;61.10
61016;DHT22;46902;52.920;6.536;2024-03-08T11:59:53;15.00;61.40
61016;DHT22;46902;52.920;6.536;2024-03-08T12:02:19;15.10;61.00
61016;DHT22;46902;52.920;6.536;2024-03-08T12:04:45;15.30;61.20
61016;DHT22;46902;52.920;6.536;2024-03-08T12:07:15;15.60;61.30
61016;DHT22;46902;52.920;6.536;2024-03-08T12:09:44;15.90;60.60
61016;DHT22;46902;52.920;6.536;2024-03-08T12:12:30;16.00;60.20
61016;DHT22;46902;52.920;6.536;2024-03-08T12:14:57;16.20;59.90
61016;DHT22;46902;52.920;6.536;2024-03-08T12:17:23;16.10;59.10
61016;DHT22;46902;52.920;6.536;2024-03-08T12:19:49;16.00;59.40
61016;DHT22;46902;52.920;6.536;2024-03-08T12:22:15;16.10;59.60
61016;DHT22;46902;52.920;6.536;2024-03-08T12:24:40;16.10;59.20
61016;DHT22;46902;52.920;6.536;2024-03-08T12:27:20;16.30;59.40
61016;DHT22;46902;52.920;6.536;2024-03-08T12:29:45;16.50;58.60
61016;DHT22;46902;52.920;6.536;2024-03-08T12:32:12;16.40;59.30
61016;DHT22;46902;52.920;6.536;2024-03-08T12:34:38;16.50;58.50
61016;DHT22;46902;52.920;6.536;2024-03-08T12:37:03;16.50;59.30
61016;DHT22;46902;52.920;6.536;2024-03-08T12:39:32;16.60;59.20
61016;DHT22;46902;52.920;6.536;2024-03-08T12:41:58;16.50;59.20
61016;DHT22;46902;52.920;6.536;2024-03-08T12:44:24;16.50;58.60
61016;DHT22;46902;52.920;6.536;2024-03-08T12:46:51;16.50;58.70
61016;DHT22;46902;52.920;6.536;2024-03-08T12:49:19;16.30;58.10
61016;DHT22;46902;52.920;6.536;2024-03-08T12:51:47;16.30;59.70
61016;DHT22;46902;52.920;6.536;2024-03-08T12:54:13;16.30;59.30
61016;DHT22;46902;52.920;6.536;2024-03-08T12:56:38;16.40;58.90
61016;DHT22;46902;52.920;6.536;2024-03-08T12:59:06;16.30;58.10
61016;DHT22;46902;52.920;6.536;2024-03-08T13:01:33;16.30;57.90
61016;DHT22;46902;52.920;6.536;2024-03-08T13:03:59;16.30;58.20
61016;DHT22;46902;52.920;6.536;2024-03-08T13:06:29;16.10;58.10
61016;DHT22;46902;52.920;6.536;2024-03-08T13:08:57;16.00;58.10
61016;DHT22;46902;52.920;6.536;2024-03-08T13:11:24;16.00;58.40
61016;DHT22;46902;52.920;6.536;2024-03-08T13:13:51;16.00;58.80
61016;DHT22;46902;52.920;6.536;2024-03-08T13:16:16;16.00;58.70
61016;DHT22;46902;52.920;6.536;2024-03-08T13:18:45;15.90;59.00
61016;DHT22;46902;52.920;6.536;2024-03-08T13:21:11;16.00;59.00
61016;DHT22;46902;52.920;6.536;2024-03-08T13:23:41;15.90;58.50
61016;DHT22;46902;52.920;6.536;2024-03-08T13:26:11;16.10;59.00
61016;DHT22;46902;52.920;6.536;2024-03-08T13:28:45;16.10;58.00
61016;DHT22;46902;52.920;6.536;2024-03-08T13:31:11;16.10;58.30
61016;DHT22;46902;52.920;6.536;2024-03-08T13:33:40;16.20;58.60
61016;DHT22;46902;52.920;6.536;2024-03-08T13:36:07;16.20;57.40
61016;DHT22;46902;52.920;6.536;2024-03-08T13:38:44;16.20;57.60
61016;DHT22;46902;52.920;6.536;2024-03-08T13:41:14;16.10;57.70
61016;DHT22;46902;52.920;6.536;2024-03-08T13:43:45;16.00;57.30
61016;DHT22;46902;52.920;6.536;2024-03-08T13:46:11;15.90;57.70
61016;DHT22;46902;52.920;6.536;2024-03-08T13:48:37;15.80;57.70
61016;DHT22;46902;52.920;6.536;2024-03-08T13:51:06;15.90;59.30
61016;DHT22;46902;52.920;6.536;2024-03-08T13:53:33;15.90;58.50
61016;DHT22;46902;52.920;6.536;2024-03-08T13:56:03;16.00;58.20
61016;DHT22;46902;52.920;6.536;2024-03-08T13:58:30;16.00;57.40
61016;DHT22;46902;52.920;6.536;2024-03-08T14:00:55;15.70;57.50
61016;DHT22;46902;52.920;6.536;2024-03-08T14:03:22;15.50;57.60
61016;DHT22;46902;52.920;6.536;2024-03-08T14:05:49;15.40;57.90
61016;DHT22;46902;52.920;6.536;2024-03-08T14:08:15;15.20;58.50
61016;DHT22;46902;52.920;6.536;2024-03-08T14:10:42;15.20;58.50
61016;DHT22;46902;52.920;6.536;2024-03-08T14:13:08;15.20;58.00
61016;DHT22;46902;52.920;6.536;2024-03-08T14:15:34;15.30;58.00
61016;DHT22;46902;52.920;6.536;2024-03-08T14:18:00;15.10;58.00
61016;DHT22;46902;52.920;6.536;2024-03-08T14:20:32;15.10;58.30
61016;DHT22;46902;52.920;6.536;2024-03-08T14:22:57;15.00;58.00
61016;DHT22;46902;52.920;6.536;2024-03-08T14:25:23;14.90;58.10
61016;DHT22;46902;52.920;6.536;2024-03-08T14:27:50;15.00;57.70
61016;DHT22;46902;52.920;6.536;2024-03-08T14:30:20;15.00;57.90
61016;DHT22;46902;52.920;6.536;2024-03-08T14:33:01;14.90;57.80
61016;DHT22;46902;52.920;6.536;2024-03-08T14:35:27;14.80;57.30
61016;DHT22;46902;52.920;6.536;2024-03-08T14:37:55;14.70;58.00
61016;DHT22;46902;52.920;6.536;2024-03-08T14:40:22;14.60;57.80
61016;DHT22;46902;52.920;6.536;2024-03-08T14:42:49;14.60;58.20
61016;DHT22;46902;52.920;6.536;2024-03-08T14:45:15;14.60;58.40
61016;DHT22;46902;52.920;6.536;2024-03-08T14:47:41;14.50;58.50
61016;DHT22;46902;52.920;6.536;2024-03-08T14:50:08;14.30;58.90
61016;DHT22;46902;52.920;6.536;2024-03-08T14:52:37;14.10;58.80
61016;DHT22;46902;52.920;6.536;2024-03-08T14:55:05;14.00;59.70
61016;DHT22;46902;52.920;6.536;2024-03-08T14:57:32;13.80;59.70
61016;DHT22;46902;52.920;6.536;2024-03-08T14:59:58;13.70;59.80
61016;DHT22;46902;52.920;6.536;2024-03-08T15:02:31;13.50;59.60
61016;DHT22;46902;52.920;6.536;2024-03-08T15:04:57;13.30;59.10
61016;DHT22;46902;52.920;6.536;2024-03-08T15:07:26;13.20;60.40
61016;DHT22;46902;52.920;6.536;2024-03-08T15:09:51;13.00;60.80
61016;DHT22;46902;52.920;6.536;2024-03-08T15:12:17;13.00;61.80
61016;DHT22;46902;52.920;6.536;2024-03-08T15:14:43;12.90;62.20
61016;DHT22;46902;52.920;6.536;2024-03-08T15:17:10;12.90;61.70
61016;DHT22;46902;52.920;6.536;2024-03-08T15:19:47;12.80;62.10
61016;DHT22;46902;52.920;6.536;2024-03-08T15:22:13;12.80;63.10
61016;DHT22;46902;52.920;6.536;2024-03-08T15:24:39;12.70;62.60
61016;DHT22;46902;52.920;6.536;2024-03-08T15:27:04;12.60;62.80
61016;DHT22;46902;52.920;6.536;2024-03-08T15:29:30;12.40;62.40
61016;DHT22;46902;52.920;6.536;2024-03-08T15:31:57;12.30;62.80
61016;DHT22;46902;52.920;6.536;2024-03-08T15:34:23;12.30;63.50
61016;DHT22;46902;52.920;6.536;2024-03-08T15:36:50;12.30;63.60
61016;DHT22;46902;52.920;6.536;2024-03-08T15:39:20;12.30;63.40
61016;DHT22;46902;52.920;6.536;2024-03-08T15:41:49;12.20;63.30
61016;DHT22;46902;52.920;6.536;2024-03-08T15:44:15;12.10;63.60
61016;DHT22;46902;52.920;6.536;2024-03-08T15:46:41;12.10;63.70
61016;DHT22;46902;52.920;6.536;2024-03-08T15:49:07;12.00;63.80
61016;DHT22;46902;52.920;6.536;2024-03-08T15:51:34;11.80;63.90
61016;DHT22;46902;52.920;6.536;2024-03-08T15:54:02;11.80;64.20